sensor_id;sensor_type;location;lat;lon;timestamp;P1;durP1;ratioP1;P2;durP2;ratioP2
9974;SDS011;5028;50.974;4.968;2022-12-08T00:01:45;7.23;;;5.10;;
9974;SDS011;5028;50.974;4.968;2022-12-08T00:04:22;7.93;;;5.30;;
9974;SDS011;5028;50.974;4.968;2022-12-08T00:06:56;7.53;;;5.57;;
9974;SDS011;5028;50.974;4.968;2022-12-08T00:09:49;7.73;;;6.17;;
9974;SDS011;5028;50.974;4.968;2022-12-08T00:12:24;8.50;;;6.13;;
9974;SDS011;5028;50.974;4.968;2022-12-08T00:14:59;7.10;;;6.40;;
9974;SDS011;5028;50.974;4.968;2022-12-08T00:17:28;8.10;;;6.60;;
9974;SDS011;5028;50.974;4.968;2022-12-08T00:20:05;8.90;;;7.20;;
9974;SDS011;5028;50.974;4.968;2022-12-08T00:22:34;10.07;;;7.47;;
9974;SDS011;5028;50.974;4.968;2022-12-08T00:25:09;10.90;;;8.00;;
9974;SDS011;5028;50.974;4.968;2022-12-08T00:27:37;13.87;;;8.33;;
9974;SDS011;5028;50.974;4.968;2022-12-08T00:30:12;10.90;;;8.47;;
9974;SDS011;5028;50.974;4.968;2022-12-08T00:32:40;9.93;;;8.43;;
9974;SDS011;5028;50.974;4.968;2022-12-08T00:35:16;13.40;;;9.37;;
9974;SDS011;5028;50.974;4.968;2022-12-08T00:37:45;13.00;;;9.33;;
9974;SDS011;5028;50.974;4.968;2022-12-08T00:40:26;14.60;;;9.57;;
9974;SDS011;5028;50.974;4.968;2022-12-08T00:42:54;12.43;;;9.70;;
9974;SDS011;5028;50.974;4.968;2022-12-08T00:45:29;13.43;;;10.23;;
9974;SDS011;5028;50.974;4.968;2022-12-08T00:47:57;13.37;;;10.63;;
9974;SDS011;5028;50.974;4.968;2022-12-08T00:50:33;13.70;;;11.03;;
9974;SDS011;5028;50.974;4.968;2022-12-08T00:53:02;15.43;;;11.53;;
9974;SDS011;5028;50.974;4.968;2022-12-08T00:55:37;16.73;;;12.40;;
9974;SDS011;5028;50.974;4.968;2022-12-08T00:58:05;18.70;;;13.37;;
9974;SDS011;5028;50.974;4.968;2022-12-08T01:00:40;19.43;;;13.53;;
9974;SDS011;5028;50.974;4.968;2022-12-08T01:03:09;21.57;;;14.27;;
9974;SDS011;5028;50.974;4.968;2022-12-08T01:05:47;18.67;;;13.80;;
9974;SDS011;5028;50.974;4.968;2022-12-08T01:08:21;17.93;;;13.70;;
9974;SDS011;5028;50.974;4.968;2022-12-08T01:11:01;23.37;;;15.47;;
9974;SDS011;5028;50.974;4.968;2022-12-08T01:13:30;21.37;;;15.27;;
9974;SDS011;5028;50.974;4.968;2022-12-08T01:16:05;21.00;;;15.93;;
9974;SDS011;5028;50.974;4.968;2022-12-08T01:18:34;24.23;;;16.80;;
9974;SDS011;5028;50.974;4.968;2022-12-08T01:21:11;24.00;;;17.33;;
9974;SDS011;5028;50.974;4.968;2022-12-08T01:23:40;26.53;;;17.87;;
9974;SDS011;5028;50.974;4.968;2022-12-08T01:26:15;24.03;;;18.53;;
9974;SDS011;5028;50.974;4.968;2022-12-08T01:28:45;22.60;;;17.53;;
9974;SDS011;5028;50.974;4.968;2022-12-08T01:31:21;27.40;;;19.73;;
9974;SDS011;5028;50.974;4.968;2022-12-08T01:33:50;28.27;;;18.93;;
9974;SDS011;5028;50.974;4.968;2022-12-08T01:36:27;26.40;;;18.83;;
9974;SDS011;5028;50.974;4.968;2022-12-08T01:38:57;28.33;;;19.80;;
9974;SDS011;5028;50.974;4.968;2022-12-08T01:41:34;25.33;;;20.10;;
9974;SDS011;5028;50.974;4.968;2022-12-08T01:47:12;27.83;;;19.33;;
9974;SDS011;5028;50.974;4.968;2022-12-08T01:49:40;30.40;;;20.37;;
9974;SDS011;5028;50.974;4.968;2022-12-08T01:52:17;25.70;;;19.80;;
9974;SDS011;5028;50.974;4.968;2022-12-08T01:54:50;28.23;;;20.60;;
9974;SDS011;5028;50.974;4.968;2022-12-08T01:57:28;28.30;;;20.40;;
9974;SDS011;5028;50.974;4.968;2022-12-08T02:00:02;29.20;;;21.27;;
9974;SDS011;5028;50.974;4.968;2022-12-08T02:02:43;26.80;;;21.57;;
9974;SDS011;5028;50.974;4.968;2022-12-08T02:05:33;26.00;;;19.87;;
9974;SDS011;5028;50.974;4.968;2022-12-08T02:08:12;31.87;;;21.40;;
9974;SDS011;5028;50.974;4.968;2022-12-08T02:10:42;26.27;;;20.27;;
9974;SDS011;5028;50.974;4.968;2022-12-08T02:13:18;26.73;;;20.07;;
9974;SDS011;5028;50.974;4.968;2022-12-08T02:15:51;28.53;;;21.50;;
9974;SDS011;5028;50.974;4.968;2022-12-08T02:18:37;27.90;;;20.63;;
9974;SDS011;5028;50.974;4.968;2022-12-08T02:21:42;25.50;;;20.53;;
9974;SDS011;5028;50.974;4.968;2022-12-08T02:24:19;26.50;;;20.53;;
9974;SDS011;5028;50.974;4.968;2022-12-08T02:30:04;26.10;;;20.27;;
9974;SDS011;5028;50.974;4.968;2022-12-08T02:36:04;27.17;;;19.70;;
9974;SDS011;5028;50.974;4.968;2022-12-08T02:38:45;21.33;;;19.03;;
9974;SDS011;5028;50.974;4.968;2022-12-08T02:41:23;25.77;;;20.07;;
9974;SDS011;5028;50.974;4.968;2022-12-08T02:44:06;25.67;;;20.17;;
9974;SDS011;5028;50.974;4.968;2022-12-08T02:46:39;28.73;;;20.57;;
9974;SDS011;5028;50.974;4.968;2022-12-08T02:49:19;27.63;;;20.53;;
9974;SDS011;5028;50.974;4.968;2022-12-08T02:51:49;25.37;;;20.13;;
9974;SDS011;5028;50.974;4.968;2022-12-08T02:54:24;25.80;;;20.33;;
9974;SDS011;5028;50.974;4.968;2022-12-08T02:56:57;27.63;;;20.67;;
9974;SDS011;5028;50.974;4.968;2022-12-08T02:59:58;23.07;;;18.63;;
9974;SDS011;5028;50.974;4.968;2022-12-08T03:02:37;24.17;;;19.40;;
9974;SDS011;5028;50.974;4.968;2022-12-08T03:05:24;24.37;;;18.73;;
9974;SDS011;5028;50.974;4.968;2022-12-08T03:08:11;27.00;;;19.47;;
9974;SDS011;5028;50.974;4.968;2022-12-08T03:10:55;25.47;;;19.77;;
9974;SDS011;5028;50.974;4.968;2022-12-08T03:13:28;24.00;;;18.30;;
9974;SDS011;5028;50.974;4.968;2022-12-08T03:16:10;27.80;;;19.40;;
9974;SDS011;5028;50.974;4.968;2022-12-08T03:18:45;26.60;;;20.50;;
9974;SDS011;5028;50.974;4.968;2022-12-08T03:21:22;25.73;;;19.13;;
9974;SDS011;5028;50.974;4.968;2022-12-08T03:23:53;28.07;;;20.50;;
9974;SDS011;5028;50.974;4.968;2022-12-08T03:26:30;27.03;;;20.47;;
9974;SDS011;5028;50.974;4.968;2022-12-08T03:29:05;28.37;;;19.53;;
9974;SDS011;5028;50.974;4.968;2022-12-08T03:31:40;28.47;;;20.03;;
9974;SDS011;5028;50.974;4.968;2022-12-08T03:34:13;27.53;;;20.87;;
9974;SDS011;5028;50.974;4.968;2022-12-08T03:36:50;27.40;;;20.10;;
9974;SDS011;5028;50.974;4.968;2022-12-08T03:39:20;26.97;;;20.07;;
9974;SDS011;5028;50.974;4.968;2022-12-08T03:41:55;29.60;;;20.00;;
9974;SDS011;5028;50.974;4.968;2022-12-08T03:44:23;26.83;;;20.57;;
9974;SDS011;5028;50.974;4.968;2022-12-08T03:46:58;29.93;;;21.23;;
9974;SDS011;5028;50.974;4.968;2022-12-08T03:49:26;27.93;;;20.47;;
9974;SDS011;5028;50.974;4.968;2022-12-08T03:52:01;29.57;;;21.70;;
9974;SDS011;5028;50.974;4.968;2022-12-08T03:54:30;29.80;;;21.20;;
9974;SDS011;5028;50.974;4.968;2022-12-08T03:57:05;27.93;;;21.10;;
9974;SDS011;5028;50.974;4.968;2022-12-08T03:59:33;26.40;;;20.20;;
9974;SDS011;5028;50.974;4.968;2022-12-08T04:02:15;26.00;;;20.03;;
9974;SDS011;5028;50.974;4.968;2022-12-08T04:04:56;25.97;;;19.67;;
9974;SDS011;5028;50.974;4.968;2022-12-08T04:07:31;29.27;;;19.60;;
9974;SDS011;5028;50.974;4.968;2022-12-08T04:10:00;28.30;;;19.70;;
9974;SDS011;5028;50.974;4.968;2022-12-08T04:12:36;28.10;;;19.40;;
9974;SDS011;5028;50.974;4.968;2022-12-08T04:15:05;26.53;;;19.47;;
9974;SDS011;5028;50.974;4.968;2022-12-08T04:17:40;25.97;;;17.63;;
9974;SDS011;5028;50.974;4.968;2022-12-08T04:20:09;23.83;;;18.43;;
9974;SDS011;5028;50.974;4.968;2022-12-08T04:22:44;26.67;;;18.17;;
9974;SDS011;5028;50.974;4.968;2022-12-08T04:25:14;25.07;;;18.33;;
9974;SDS011;5028;50.974;4.968;2022-12-08T04:27:49;21.37;;;17.83;;
9974;SDS011;5028;50.974;4.968;2022-12-08T04:30:18;23.87;;;17.97;;
9974;SDS011;5028;50.974;4.968;2022-12-08T04:32:53;25.13;;;18.20;;
9974;SDS011;5028;50.974;4.968;2022-12-08T04:35:21;25.70;;;18.10;;
9974;SDS011;5028;50.974;4.968;2022-12-08T04:37:56;22.57;;;18.10;;
9974;SDS011;5028;50.974;4.968;2022-12-08T04:40:26;25.87;;;18.80;;
9974;SDS011;5028;50.974;4.968;2022-12-08T04:43:01;25.10;;;18.40;;
9974;SDS011;5028;50.974;4.968;2022-12-08T04:45:29;28.13;;;19.97;;
9974;SDS011;5028;50.974;4.968;2022-12-08T04:48:04;24.67;;;18.80;;
9974;SDS011;5028;50.974;4.968;2022-12-08T04:50:33;23.23;;;18.60;;
9974;SDS011;5028;50.974;4.968;2022-12-08T04:53:09;23.17;;;18.87;;
9974;SDS011;5028;50.974;4.968;2022-12-08T04:55:41;24.57;;;19.03;;
9974;SDS011;5028;50.974;4.968;2022-12-08T04:58:20;23.23;;;18.43;;
9974;SDS011;5028;50.974;4.968;2022-12-08T05:00:52;22.20;;;18.13;;
9974;SDS011;5028;50.974;4.968;2022-12-08T05:03:35;23.37;;;16.97;;
9974;SDS011;5028;50.974;4.968;2022-12-08T05:06:17;24.53;;;17.07;;
9974;SDS011;5028;50.974;4.968;2022-12-08T05:08:46;19.60;;;15.80;;
9974;SDS011;5028;50.974;4.968;2022-12-08T05:11:22;19.23;;;15.30;;
9974;SDS011;5028;50.974;4.968;2022-12-08T05:13:51;20.90;;;15.90;;
9974;SDS011;5028;50.974;4.968;2022-12-08T05:16:26;18.97;;;15.00;;
9974;SDS011;5028;50.974;4.968;2022-12-08T05:18:55;17.40;;;14.37;;
9974;SDS011;5028;50.974;4.968;2022-12-08T05:21:30;17.53;;;14.70;;
9974;SDS011;5028;50.974;4.968;2022-12-08T05:23:58;17.73;;;13.47;;
9974;SDS011;5028;50.974;4.968;2022-12-08T05:26:35;18.10;;;13.47;;
9974;SDS011;5028;50.974;4.968;2022-12-08T05:29:03;18.80;;;14.03;;
9974;SDS011;5028;50.974;4.968;2022-12-08T05:31:38;17.80;;;15.00;;
9974;SDS011;5028;50.974;4.968;2022-12-08T05:34:06;17.37;;;14.33;;
9974;SDS011;5028;50.974;4.968;2022-12-08T05:36:41;17.50;;;14.50;;
9974;SDS011;5028;50.974;4.968;2022-12-08T05:39:10;20.20;;;14.63;;
9974;SDS011;5028;50.974;4.968;2022-12-08T05:41:47;19.83;;;15.10;;
9974;SDS011;5028;50.974;4.968;2022-12-08T05:44:16;18.00;;;14.30;;
9974;SDS011;5028;50.974;4.968;2022-12-08T05:46:51;17.87;;;13.40;;
9974;SDS011;5028;50.974;4.968;2022-12-08T05:49:20;15.63;;;11.57;;
9974;SDS011;5028;50.974;4.968;2022-12-08T05:51:55;12.53;;;10.90;;
9974;SDS011;5028;50.974;4.968;2022-12-08T05:54:24;13.27;;;11.30;;
9974;SDS011;5028;50.974;4.968;2022-12-08T05:57:00;15.27;;;11.40;;
9974;SDS011;5028;50.974;4.968;2022-12-08T05:59:29;13.53;;;11.40;;
9974;SDS011;5028;50.974;4.968;2022-12-08T06:02:04;17.90;;;12.87;;
9974;SDS011;5028;50.974;4.968;2022-12-08T06:04:41;16.07;;;12.27;;
9974;SDS011;5028;50.974;4.968;2022-12-08T06:07:16;13.77;;;11.40;;
9974;SDS011;5028;50.974;4.968;2022-12-08T06:09:45;16.33;;;12.63;;
9974;SDS011;5028;50.974;4.968;2022-12-08T06:12:20;18.27;;;12.73;;
9974;SDS011;5028;50.974;4.968;2022-12-08T06:14:49;18.13;;;13.43;;
9974;SDS011;5028;50.974;4.968;2022-12-08T06:17:24;18.63;;;13.97;;
9974;SDS011;5028;50.974;4.968;2022-12-08T06:19:52;19.23;;;13.90;;
9974;SDS011;5028;50.974;4.968;2022-12-08T06:22:29;17.93;;;13.50;;
9974;SDS011;5028;50.974;4.968;2022-12-08T06:24:57;19.03;;;13.63;;
9974;SDS011;5028;50.974;4.968;2022-12-08T06:27:36;20.13;;;13.30;;
9974;SDS011;5028;50.974;4.968;2022-12-08T06:30:05;20.60;;;13.47;;
9974;SDS011;5028;50.974;4.968;2022-12-08T06:32:41;19.60;;;13.97;;
9974;SDS011;5028;50.974;4.968;2022-12-08T06:35:10;17.87;;;14.00;;
9974;SDS011;5028;50.974;4.968;2022-12-08T06:37:45;18.30;;;14.60;;
9974;SDS011;5028;50.974;4.968;2022-12-08T06:40:13;21.97;;;16.10;;
9974;SDS011;5028;50.974;4.968;2022-12-08T06:42:50;21.20;;;15.83;;
9974;SDS011;5028;50.974;4.968;2022-12-08T06:45:19;24.97;;;16.07;;
9974;SDS011;5028;50.974;4.968;2022-12-08T06:47:54;21.93;;;15.67;;
9974;SDS011;5028;50.974;4.968;2022-12-08T06:50:23;23.20;;;16.27;;
9974;SDS011;5028;50.974;4.968;2022-12-08T06:52:57;21.13;;;16.03;;
9974;SDS011;5028;50.974;4.968;2022-12-08T06:55:30;20.90;;;16.83;;
9974;SDS011;5028;50.974;4.968;2022-12-08T06:58:26;20.20;;;15.50;;
9974;SDS011;5028;50.974;4.968;2022-12-08T07:00:54;19.17;;;16.20;;
9974;SDS011;5028;50.974;4.968;2022-12-08T07:03:29;24.67;;;16.27;;
9974;SDS011;5028;50.974;4.968;2022-12-08T07:06:13;20.37;;;17.07;;
9974;SDS011;5028;50.974;4.968;2022-12-08T07:08:49;21.20;;;17.17;;
9974;SDS011;5028;50.974;4.968;2022-12-08T07:11:18;20.17;;;16.90;;
9974;SDS011;5028;50.974;4.968;2022-12-08T07:13:55;19.87;;;16.83;;
9974;SDS011;5028;50.974;4.968;2022-12-08T07:16:24;22.20;;;17.23;;
9974;SDS011;5028;50.974;4.968;2022-12-08T07:18:59;22.83;;;17.40;;
9974;SDS011;5028;50.974;4.968;2022-12-08T07:21:28;25.63;;;17.30;;
9974;SDS011;5028;50.974;4.968;2022-12-08T07:24:04;24.57;;;17.67;;
9974;SDS011;5028;50.974;4.968;2022-12-08T07:26:34;22.83;;;16.07;;
9974;SDS011;5028;50.974;4.968;2022-12-08T07:29:11;22.13;;;16.20;;
9974;SDS011;5028;50.974;4.968;2022-12-08T07:31:39;22.07;;;15.93;;
9974;SDS011;5028;50.974;4.968;2022-12-08T07:34:14;20.87;;;15.47;;
9974;SDS011;5028;50.974;4.968;2022-12-08T07:36:43;22.57;;;16.50;;
9974;SDS011;5028;50.974;4.968;2022-12-08T07:39:18;22.23;;;14.67;;
9974;SDS011;5028;50.974;4.968;2022-12-08T07:41:47;21.20;;;14.83;;
9974;SDS011;5028;50.974;4.968;2022-12-08T07:44:24;19.50;;;14.37;;
9974;SDS011;5028;50.974;4.968;2022-12-08T07:46:52;20.63;;;13.90;;
9974;SDS011;5028;50.974;4.968;2022-12-08T07:49:27;21.07;;;14.03;;
9974;SDS011;5028;50.974;4.968;2022-12-08T07:51:55;19.03;;;14.60;;
9974;SDS011;5028;50.974;4.968;2022-12-08T07:54:30;15.97;;;12.57;;
9974;SDS011;5028;50.974;4.968;2022-12-08T07:56:58;21.93;;;14.27;;
9974;SDS011;5028;50.974;4.968;2022-12-08T07:59:37;17.60;;;13.47;;
9974;SDS011;5028;50.974;4.968;2022-12-08T08:02:10;20.47;;;13.40;;
9974;SDS011;5028;50.974;4.968;2022-12-08T08:04:51;19.07;;;12.73;;
9974;SDS011;5028;50.974;4.968;2022-12-08T08:07:29;19.10;;;12.83;;
9974;SDS011;5028;50.974;4.968;2022-12-08T08:10:05;18.33;;;12.63;;
9974;SDS011;5028;50.974;4.968;2022-12-08T08:12:34;17.77;;;13.10;;
9974;SDS011;5028;50.974;4.968;2022-12-08T08:15:11;18.33;;;12.30;;
9974;SDS011;5028;50.974;4.968;2022-12-08T08:17:39;15.30;;;11.47;;
9974;SDS011;5028;50.974;4.968;2022-12-08T08:20:14;16.07;;;12.30;;
9974;SDS011;5028;50.974;4.968;2022-12-08T08:22:44;18.10;;;12.20;;
9974;SDS011;5028;50.974;4.968;2022-12-08T08:25:19;17.67;;;11.57;;
9974;SDS011;5028;50.974;4.968;2022-12-08T08:27:49;15.77;;;11.63;;
9974;SDS011;5028;50.974;4.968;2022-12-08T08:30:26;13.00;;;10.70;;
9974;SDS011;5028;50.974;4.968;2022-12-08T08:32:54;17.00;;;11.30;;
9974;SDS011;5028;50.974;4.968;2022-12-08T08:35:29;15.70;;;11.23;;
9974;SDS011;5028;50.974;4.968;2022-12-08T08:37:57;14.97;;;11.50;;
9974;SDS011;5028;50.974;4.968;2022-12-08T08:40:33;19.87;;;12.27;;
9974;SDS011;5028;50.974;4.968;2022-12-08T08:43:08;15.50;;;11.37;;
9974;SDS011;5028;50.974;4.968;2022-12-08T08:46:04;14.90;;;11.03;;
9974;SDS011;5028;50.974;4.968;2022-12-08T08:48:40;16.63;;;11.47;;
9974;SDS011;5028;50.974;4.968;2022-12-08T08:51:09;18.77;;;11.10;;
9974;SDS011;5028;50.974;4.968;2022-12-08T08:53:48;14.47;;;11.47;;
9974;SDS011;5028;50.974;4.968;2022-12-08T08:56:17;17.07;;;11.13;;
9974;SDS011;5028;50.974;4.968;2022-12-08T08:58:53;15.93;;;11.47;;
9974;SDS011;5028;50.974;4.968;2022-12-08T09:01:23;19.17;;;12.37;;
9974;SDS011;5028;50.974;4.968;2022-12-08T09:04:08;15.13;;;11.50;;
9974;SDS011;5028;50.974;4.968;2022-12-08T09:06:36;18.77;;;11.40;;
9974;SDS011;5028;50.974;4.968;2022-12-08T09:09:11;16.67;;;12.23;;
9974;SDS011;5028;50.974;4.968;2022-12-08T09:11:40;16.00;;;11.13;;
9974;SDS011;5028;50.974;4.968;2022-12-08T09:14:16;16.80;;;12.53;;
9974;SDS011;5028;50.974;4.968;2022-12-08T09:16:46;15.87;;;11.60;;
9974;SDS011;5028;50.974;4.968;2022-12-08T09:19:21;16.97;;;12.63;;
9974;SDS011;5028;50.974;4.968;2022-12-08T09:21:49;16.20;;;12.30;;
9974;SDS011;5028;50.974;4.968;2022-12-08T09:24:24;18.43;;;11.90;;
9974;SDS011;5028;50.974;4.968;2022-12-08T09:26:53;18.50;;;12.77;;
9974;SDS011;5028;50.974;4.968;2022-12-08T09:29:28;15.60;;;11.40;;
9974;SDS011;5028;50.974;4.968;2022-12-08T09:32:03;17.90;;;11.57;;
9974;SDS011;5028;50.974;4.968;2022-12-08T09:34:38;16.03;;;11.50;;
9974;SDS011;5028;50.974;4.968;2022-12-08T09:37:06;19.63;;;13.10;;
9974;SDS011;5028;50.974;4.968;2022-12-08T09:39:41;19.43;;;12.07;;
9974;SDS011;5028;50.974;4.968;2022-12-08T09:42:10;16.03;;;11.03;;
9974;SDS011;5028;50.974;4.968;2022-12-08T09:44:49;15.57;;;11.70;;
9974;SDS011;5028;50.974;4.968;2022-12-08T09:47:28;15.87;;;11.13;;
9974;SDS011;5028;50.974;4.968;2022-12-08T09:50:06;18.30;;;11.33;;
9974;SDS011;5028;50.974;4.968;2022-12-08T09:52:42;13.93;;;10.73;;
9974;SDS011;5028;50.974;4.968;2022-12-08T09:55:22;17.73;;;11.33;;
9974;SDS011;5028;50.974;4.968;2022-12-08T09:57:56;15.20;;;10.83;;
9974;SDS011;5028;50.974;4.968;2022-12-08T10:00:34;18.07;;;10.33;;
9974;SDS011;5028;50.974;4.968;2022-12-08T10:03:05;14.90;;;10.60;;
9974;SDS011;5028;50.974;4.968;2022-12-08T10:05:45;11.87;;;9.37;;
9974;SDS011;5028;50.974;4.968;2022-12-08T10:08:28;15.57;;;10.30;;
9974;SDS011;5028;50.974;4.968;2022-12-08T10:11:13;14.57;;;10.27;;
9974;SDS011;5028;50.974;4.968;2022-12-08T10:13:51;18.13;;;11.80;;
9974;SDS011;5028;50.974;4.968;2022-12-08T10:16:32;14.67;;;11.33;;
9974;SDS011;5028;50.974;4.968;2022-12-08T10:19:09;15.93;;;11.10;;
9974;SDS011;5028;50.974;4.968;2022-12-08T10:21:47;14.93;;;9.70;;
9974;SDS011;5028;50.974;4.968;2022-12-08T10:24:19;14.77;;;11.40;;
9974;SDS011;5028;50.974;4.968;2022-12-08T10:26:59;15.77;;;10.97;;
9974;SDS011;5028;50.974;4.968;2022-12-08T10:29:29;15.17;;;10.47;;
9974;SDS011;5028;50.974;4.968;2022-12-08T10:32:08;15.10;;;10.90;;
9974;SDS011;5028;50.974;4.968;2022-12-08T10:35:01;15.67;;;11.70;;
9974;SDS011;5028;50.974;4.968;2022-12-08T10:37:39;15.77;;;11.07;;
9974;SDS011;5028;50.974;4.968;2022-12-08T10:40:09;16.07;;;10.17;;
9974;SDS011;5028;50.974;4.968;2022-12-08T10:42:47;14.37;;;11.07;;
9974;SDS011;5028;50.974;4.968;2022-12-08T10:45:20;15.53;;;10.67;;
9974;SDS011;5028;50.974;4.968;2022-12-08T10:47:59;17.30;;;10.90;;
9974;SDS011;5028;50.974;4.968;2022-12-08T10:50:40;14.53;;;10.80;;
9974;SDS011;5028;50.974;4.968;2022-12-08T10:53:18;16.87;;;11.53;;
9974;SDS011;5028;50.974;4.968;2022-12-08T10:55:49;16.13;;;11.07;;
9974;SDS011;5028;50.974;4.968;2022-12-08T10:58:29;16.47;;;11.10;;
9974;SDS011;5028;50.974;4.968;2022-12-08T11:01:02;14.37;;;12.27;;
9974;SDS011;5028;50.974;4.968;2022-12-08T11:03:50;14.37;;;10.37;;
9974;SDS011;5028;50.974;4.968;2022-12-08T11:06:36;17.90;;;11.10;;
9974;SDS011;5028;50.974;4.968;2022-12-08T11:09:23;16.83;;;12.30;;
9974;SDS011;5028;50.974;4.968;2022-12-08T11:12:11;15.73;;;10.80;;
9974;SDS011;5028;50.974;4.968;2022-12-08T11:14:48;16.93;;;11.47;;
9974;SDS011;5028;50.974;4.968;2022-12-08T11:17:28;15.97;;;12.13;;
9974;SDS011;5028;50.974;4.968;2022-12-08T11:20:18;15.83;;;11.70;;
9974;SDS011;5028;50.974;4.968;2022-12-08T11:22:56;19.57;;;11.47;;
9974;SDS011;5028;50.974;4.968;2022-12-08T11:25:24;17.83;;;12.07;;
9974;SDS011;5028;50.974;4.968;2022-12-08T11:28:04;17.77;;;11.53;;
9974;SDS011;5028;50.974;4.968;2022-12-08T11:30:40;16.27;;;10.97;;
9974;SDS011;5028;50.974;4.968;2022-12-08T11:33:20;14.47;;;10.03;;
9974;SDS011;5028;50.974;4.968;2022-12-08T11:35:50;15.30;;;10.90;;
9974;SDS011;5028;50.974;4.968;2022-12-08T11:38:31;13.93;;;9.83;;
9974;SDS011;5028;50.974;4.968;2022-12-08T11:41:03;11.90;;;8.90;;
9974;SDS011;5028;50.974;4.968;2022-12-08T11:43:44;13.83;;;9.40;;
9974;SDS011;5028;50.974;4.968;2022-12-08T11:46:18;16.13;;;10.90;;
9974;SDS011;5028;50.974;4.968;2022-12-08T11:48:59;12.50;;;8.93;;
9974;SDS011;5028;50.974;4.968;2022-12-08T11:51:33;13.13;;;8.17;;
9974;SDS011;5028;50.974;4.968;2022-12-08T11:54:14;14.77;;;8.80;;
9974;SDS011;5028;50.974;4.968;2022-12-08T11:56:50;11.10;;;6.90;;
9974;SDS011;5028;50.974;4.968;2022-12-08T11:59:28;14.00;;;7.80;;
9974;SDS011;5028;50.974;4.968;2022-12-08T12:02:00;8.23;;;7.33;;
9974;SDS011;5028;50.974;4.968;2022-12-08T12:04:43;9.57;;;7.20;;
9974;SDS011;5028;50.974;4.968;2022-12-08T12:10:31;9.33;;;6.90;;
9974;SDS011;5028;50.974;4.968;2022-12-08T12:13:16;12.97;;;7.43;;
9974;SDS011;5028;50.974;4.968;2022-12-08T12:19:08;11.23;;;7.60;;
9974;SDS011;5028;50.974;4.968;2022-12-08T12:21:48;12.73;;;7.43;;
9974;SDS011;5028;50.974;4.968;2022-12-08T12:24:20;9.03;;;6.93;;
9974;SDS011;5028;50.974;4.968;2022-12-08T12:27:04;11.70;;;6.70;;
9974;SDS011;5028;50.974;4.968;2022-12-08T12:29:35;13.50;;;7.20;;
9974;SDS011;5028;50.974;4.968;2022-12-08T12:32:20;10.00;;;6.80;;
9974;SDS011;5028;50.974;4.968;2022-12-08T12:34:52;13.10;;;6.83;;
9974;SDS011;5028;50.974;4.968;2022-12-08T12:37:34;10.83;;;6.80;;
9974;SDS011;5028;50.974;4.968;2022-12-08T12:40:06;9.57;;;6.97;;
9974;SDS011;5028;50.974;4.968;2022-12-08T12:45:50;10.97;;;6.63;;
9974;SDS011;5028;50.974;4.968;2022-12-08T12:52:37;12.37;;;6.90;;
9974;SDS011;5028;50.974;4.968;2022-12-08T12:58:21;11.43;;;6.70;;
9974;SDS011;5028;50.974;4.968;2022-12-08T13:04:11;8.13;;;5.63;;
9974;SDS011;5028;50.974;4.968;2022-12-08T13:06:46;11.43;;;6.47;;
9974;SDS011;5028;50.974;4.968;2022-12-08T13:09:26;9.67;;;5.60;;
9974;SDS011;5028;50.974;4.968;2022-12-08T13:12:08;9.77;;;6.13;;
9974;SDS011;5028;50.974;4.968;2022-12-08T13:14:43;11.07;;;6.10;;
9974;SDS011;5028;50.974;4.968;2022-12-08T13:17:24;9.63;;;6.00;;
9974;SDS011;5028;50.974;4.968;2022-12-08T13:19:56;9.67;;;6.00;;
9974;SDS011;5028;50.974;4.968;2022-12-08T13:22:47;9.47;;;6.03;;
9974;SDS011;5028;50.974;4.968;2022-12-08T13:31:38;7.87;;;6.20;;
9974;SDS011;5028;50.974;4.968;2022-12-08T13:34:19;10.13;;;6.10;;
9974;SDS011;5028;50.974;4.968;2022-12-08T13:37:04;7.70;;;5.70;;
9974;SDS011;5028;50.974;4.968;2022-12-08T13:39:48;9.73;;;6.07;;
9974;SDS011;5028;50.974;4.968;2022-12-08T13:42:28;8.07;;;6.13;;
9974;SDS011;5028;50.974;4.968;2022-12-08T13:45:04;10.40;;;6.03;;
9974;SDS011;5028;50.974;4.968;2022-12-08T13:48:09;8.90;;;6.20;;
9974;SDS011;5028;50.974;4.968;2022-12-08T13:51:08;8.63;;;6.13;;
9974;SDS011;5028;50.974;4.968;2022-12-08T13:54:11;11.30;;;6.13;;
9974;SDS011;5028;50.974;4.968;2022-12-08T13:57:06;8.67;;;5.93;;
9974;SDS011;5028;50.974;4.968;2022-12-08T13:59:52;9.60;;;5.70;;
9974;SDS011;5028;50.974;4.968;2022-12-08T14:02:24;8.10;;;6.03;;
9974;SDS011;5028;50.974;4.968;2022-12-08T14:05:18;9.97;;;6.40;;
9974;SDS011;5028;50.974;4.968;2022-12-08T14:08:32;11.40;;;6.57;;
9974;SDS011;5028;50.974;4.968;2022-12-08T14:11:28;8.63;;;5.60;;
9974;SDS011;5028;50.974;4.968;2022-12-08T14:14:01;9.20;;;6.27;;
9974;SDS011;5028;50.974;4.968;2022-12-08T14:16:48;10.53;;;6.40;;
9974;SDS011;5028;50.974;4.968;2022-12-08T14:19:19;13.90;;;6.87;;
9974;SDS011;5028;50.974;4.968;2022-12-08T14:21:57;10.77;;;6.37;;
9974;SDS011;5028;50.974;4.968;2022-12-08T14:24:28;11.90;;;6.87;;
9974;SDS011;5028;50.974;4.968;2022-12-08T14:27:04;8.93;;;6.17;;
9974;SDS011;5028;50.974;4.968;2022-12-08T14:29:39;8.47;;;6.20;;
9974;SDS011;5028;50.974;4.968;2022-12-08T14:32:27;9.40;;;6.27;;
9974;SDS011;5028;50.974;4.968;2022-12-08T14:35:01;7.53;;;5.90;;
9974;SDS011;5028;50.974;4.968;2022-12-08T14:37:49;9.67;;;6.67;;
9974;SDS011;5028;50.974;4.968;2022-12-08T14:40:23;7.40;;;5.93;;
9974;SDS011;5028;50.974;4.968;2022-12-08T14:43:14;7.63;;;5.77;;
9974;SDS011;5028;50.974;4.968;2022-12-08T14:45:45;6.50;;;4.90;;
9974;SDS011;5028;50.974;4.968;2022-12-08T14:48:26;5.70;;;5.10;;
9974;SDS011;5028;50.974;4.968;2022-12-08T14:51:06;6.70;;;5.20;;
9974;SDS011;5028;50.974;4.968;2022-12-08T14:53:51;4.53;;;4.00;;
9974;SDS011;5028;50.974;4.968;2022-12-08T14:56:24;5.83;;;4.60;;
9974;SDS011;5028;50.974;4.968;2022-12-08T14:59:04;5.20;;;4.30;;
9974;SDS011;5028;50.974;4.968;2022-12-08T15:01:34;4.13;;;2.67;;
9974;SDS011;5028;50.974;4.968;2022-12-08T15:04:17;5.47;;;2.70;;
9974;SDS011;5028;50.974;4.968;2022-12-08T15:07:01;3.27;;;2.20;;
9974;SDS011;5028;50.974;4.968;2022-12-08T15:09:34;3.20;;;2.10;;
9974;SDS011;5028;50.974;4.968;2022-12-08T15:12:20;2.73;;;1.87;;
9974;SDS011;5028;50.974;4.968;2022-12-08T15:14:53;5.97;;;1.93;;
9974;SDS011;5028;50.974;4.968;2022-12-08T15:17:31;5.17;;;1.83;;
9974;SDS011;5028;50.974;4.968;2022-12-08T15:20:02;4.20;;;1.90;;
9974;SDS011;5028;50.974;4.968;2022-12-08T15:22:39;4.70;;;1.80;;
9974;SDS011;5028;50.974;4.968;2022-12-08T15:25:09;3.60;;;1.80;;
9974;SDS011;5028;50.974;4.968;2022-12-08T15:27:47;4.30;;;1.90;;
9974;SDS011;5028;50.974;4.968;2022-12-08T15:30:24;5.37;;;1.90;;
9974;SDS011;5028;50.974;4.968;2022-12-08T15:32:54;3.87;;;2.40;;
9974;SDS011;5028;50.974;4.968;2022-12-08T15:35:28;3.90;;;2.30;;
9974;SDS011;5028;50.974;4.968;2022-12-08T15:38:05;4.53;;;2.30;;
9974;SDS011;5028;50.974;4.968;2022-12-08T15:40:43;7.37;;;2.70;;
9974;SDS011;5028;50.974;4.968;2022-12-08T15:43:22;5.10;;;2.87;;
9974;SDS011;5028;50.974;4.968;2022-12-08T15:45:50;4.63;;;2.97;;
9974;SDS011;5028;50.974;4.968;2022-12-08T15:48:27;5.37;;;3.30;;
9974;SDS011;5028;50.974;4.968;2022-12-08T15:50:56;5.53;;;3.37;;
9974;SDS011;5028;50.974;4.968;2022-12-08T15:53:32;4.63;;;3.50;;
9974;SDS011;5028;50.974;4.968;2022-12-08T15:56:03;6.03;;;2.97;;
9974;SDS011;5028;50.974;4.968;2022-12-08T15:58:59;5.13;;;3.27;;
9974;SDS011;5028;50.974;4.968;2022-12-08T16:01:30;3.97;;;2.67;;
9974;SDS011;5028;50.974;4.968;2022-12-08T16:04:12;5.40;;;3.10;;
9974;SDS011;5028;50.974;4.968;2022-12-08T16:07:18;5.93;;;3.00;;
9974;SDS011;5028;50.974;4.968;2022-12-08T16:09:57;5.60;;;3.03;;
9974;SDS011;5028;50.974;4.968;2022-12-08T16:12:28;4.53;;;2.83;;
9974;SDS011;5028;50.974;4.968;2022-12-08T16:15:42;3.67;;;3.10;;
9974;SDS011;5028;50.974;4.968;2022-12-08T16:18:25;5.50;;;2.93;;
9974;SDS011;5028;50.974;4.968;2022-12-08T16:21:02;3.70;;;3.20;;
9974;SDS011;5028;50.974;4.968;2022-12-08T16:23:51;8.00;;;3.50;;
9974;SDS011;5028;50.974;4.968;2022-12-08T16:26:34;5.00;;;3.70;;